This is the latest recevied weather packets stored in our database for station/object EW2310. If no packets are shown the sender has not sent any weather packets the latest 10 day(s).
| Time | Temp. | Humidity | Pressure | Rain* | Wind** | Luminosity | Snow |
|---|---|---|---|---|---|---|---|
| 1777317044 | 16.67° C | 68% | 1016.1 hPa | 0 mm | - | 0 W/m² | - |
| 1777316741 | 17.22° C | 68% | 1016 hPa | 0 mm | - | 0 W/m² | - |
| 1777316141 | 17.22° C | 67% | 1015.9 hPa | 0 mm | - | 0 W/m² | - |
| 1777315841 | 17.22° C | 67% | 1015.8 hPa | 0 mm | - | 0 W/m² | - |
| 1777312241 | 18.33° C | 67% | 1015.3 hPa | 0 mm | - | 12 W/m² | - |
| 1777309841 | 19.44° C | 63% | 1015.2 hPa | 0 mm | - | 30 W/m² | - |
| 1777303541 | 20.56° C | 53% | 1015.5 hPa | 0 mm | - | 441 W/m² | - |
| 1777301741 | 21.11° C | 53% | 1015.6 hPa | 0 mm | - | 536 W/m² | - |
| 1777301441 | 21.11° C | 51% | 1015.6 hPa | 0 mm | - | 552 W/m² | - |
| 1777298141 | 20.56° C | 62% | 1016 hPa | 0 mm | - | 717 W/m² | - |
| 1777296941 | 21.11° C | 65% | 1016.1 hPa | 0 mm | - | 819 W/m² | - |
| 1777296641 | 21.11° C | 65% | 1016 hPa | 0 mm | - | 737 W/m² | - |
| 1777293341 | 21.67° C | 58% | 1016.5 hPa | 0 mm | - | 689 W/m² | - |
| 1777292441 | 21.67° C | 54% | 1016.6 hPa | 0 mm | - | 533 W/m² | - |
| 1777290641 | 21.67° C | 49% | 1016.7 hPa | 0 mm | - | 923 W/m² | - |
| 1777290044 | 21.67° C | 59% | 1016.8 hPa | 0 mm | - | 928 W/m² | - |
| 1777284941 | 21.11° C | 67% | 1017.4 hPa | 0 mm | - | 909 W/m² | - |
| 1777284341 | 21.11° C | 67% | 1017.4 hPa | 0 mm | - | 900 W/m² | - |
| 1777282241 | 21.11° C | 68% | 1017.7 hPa | 0 mm | - | 860 W/m² | - |
| 1777279242 | 20.56° C | 64% | 1017.9 hPa | 0 mm | - | 626 W/m² | - |
| 1777277441 | 20° C | 66% | 1017.9 hPa | 0 mm | - | 589 W/m² | - |
| 1777276841 | 19.44° C | 65% | 1018 hPa | 0 mm | - | 605 W/m² | - |
| 1777276541 | 18.89° C | 67% | 1018 hPa | 0 mm | - | 613 W/m² | - |
| 1777275641 | 18.89° C | 68% | 1017.9 hPa | 0 mm | - | 605 W/m² | - |
| 1777273241 | 17.22° C | 82% | 1018 hPa | 0 mm | - | 461 W/m² | - |
* Rain latest hour (hover to see other rain measurements)
** Current wind speed in m/s (hover to see current wind gust speed)